Time;durP1;ratioP1;P1;durP2;ratioP2;P2;SDS_P1;SDS_P2;PMS_P1;PMS_P2;Temp;Humidity;BMP_temperature;BMP_pressure;BME280_temperature;BME280_humidity;BME280_pressure;Samples;Min_cycle;Max_cycle;Signal;HPM_P1;HPM_P2
2023/07/16 00:01:12;;;;;;;0.10;0.10;;;15.70;56.50;;;;;;5051008;28;20241;-57
2023/07/16 00:03:43;;;;;;;0.10;0.10;;;15.80;56.60;;;;;;5039043;28;20573;-48
2023/07/16 00:06:16;;;;;;;0.10;0.10;;;15.80;56.50;;;;;;5039427;28;20216;-56
2023/07/16 00:08:49;;;;;;;0.10;0.10;;;15.80;56.30;;;;;;5052911;28;20199;-56
2023/07/16 00:11:19;;;;;;;0.10;0.10;;;15.90;56.10;;;;;;5051032;28;20210;-55
2023/07/16 00:13:50;;;;;;;0.10;0.10;;;15.90;56.00;;;;;;5042368;28;20197;-55
2023/07/16 00:16:21;;;;;;;0.10;0.10;;;16.00;55.90;;;;;;5038615;28;20210;-48
2023/07/16 00:18:51;;;;;;;0.10;0.10;;;16.00;56.20;;;;;;5052298;28;20191;-51
2023/07/16 00:21:22;;;;;;;0.10;0.10;;;16.10;56.20;;;;;;5051278;28;20686;-48
2023/07/16 00:23:55;;;;;;;0.10;0.10;;;16.20;56.30;;;;;;5052592;28;20206;-49
2023/07/16 00:26:26;;;;;;;0.10;0.10;;;16.30;56.30;;;;;;5052508;28;20229;-47
2023/07/16 00:28:56;;;;;;;0.10;0.10;;;16.40;56.20;;;;;;5051867;28;20203;-50
2023/07/16 00:31:27;;;;;;;0.10;0.10;;;16.40;56.00;;;;;;5051786;28;20195;-49
2023/07/16 00:33:58;;;;;;;0.10;0.10;;;16.40;55.80;;;;;;5052095;28;20207;-50
2023/07/16 00:36:28;;;;;;;0.10;0.10;;;16.50;55.80;;;;;;5044692;28;20242;-50
2023/07/16 00:39:01;;;;;;;0.00;0.00;;;16.50;55.80;;;;;;5051573;28;20607;-50
2023/07/16 00:41:31;;;;;;;0.10;0.10;;;16.60;55.80;;;;;;5051069;28;20447;-53
2023/07/16 00:44:02;;;;;;;0.10;0.10;;;16.60;55.80;;;;;;5051216;28;20199;-49
2023/07/16 00:46:33;;;;;;;0.10;0.10;;;16.70;55.80;;;;;;5050917;28;20195;-50
2023/07/16 00:49:04;;;;;;;0.10;0.10;;;16.70;55.80;;;;;;5051548;28;20281;-50
2023/07/16 00:51:35;;;;;;;0.10;0.10;;;16.70;55.80;;;;;;5050670;28;20200;-53
2023/07/16 00:54:09;;;;;;;0.10;0.10;;;16.80;55.80;;;;;;5051107;28;20685;-50
2023/07/16 00:56:40;;;;;;;0.10;0.10;;;16.80;55.90;;;;;;5051192;28;20191;-50
2023/07/16 00:59:09;;;;;;;0.10;0.10;;;16.80;55.80;;;;;;5051249;28;20605;-50
2023/07/16 01:01:41;;;;;;;0.10;0.10;;;16.80;55.80;;;;;;5051266;28;20199;-51
2023/07/16 01:04:12;;;;;;;0.10;0.10;;;16.90;55.90;;;;;;5051871;28;20197;-50
2023/07/16 01:06:47;;;;;;;0.10;0.10;;;16.90;55.90;;;;;;5051854;28;20191;-50
2023/07/16 01:09:21;;;;;;;0.10;0.10;;;16.90;55.80;;;;;;5051709;28;20195;-49
2023/07/16 01:11:52;;;;;;;0.00;0.00;;;16.90;55.90;;;;;;5051317;28;20276;-50
2023/07/16 01:14:23;;;;;;;0.10;0.10;;;16.90;55.90;;;;;;5051464;28;20222;-52
2023/07/16 01:16:58;;;;;;;0.10;0.10;;;16.90;55.90;;;;;;5051274;28;20203;-49
2023/07/16 01:19:29;;;;;;;0.10;0.10;;;16.90;55.90;;;;;;5051411;28;20201;-51
2023/07/16 01:22:34;;;;;;;0.10;0.10;;;16.90;56.00;;;;;;5051500;28;20203;-49
2023/07/16 01:25:22;;;;;;;0.20;0.20;;;16.90;56.00;;;;;;5049819;28;20223;-49
2023/07/16 01:28:24;;;;;;;0.10;0.10;;;17.00;56.10;;;;;;5051478;28;20195;-49
2023/07/16 01:30:58;;;;;;;0.00;0.00;;;16.90;56.10;;;;;;5051134;28;20238;-50
2023/07/16 01:33:29;;;;;;;0.00;0.00;;;17.00;56.10;;;;;;5051197;28;20261;-49
2023/07/16 01:36:01;;;;;;;0.10;0.10;;;17.00;56.20;;;;;;5051543;28;20687;-50
2023/07/16 01:38:32;;;;;;;0.10;0.10;;;17.00;56.20;;;;;;5051612;28;20539;-51
2023/07/16 01:41:03;;;;;;;0.10;0.10;;;17.00;56.20;;;;;;5050873;28;20224;-49
2023/07/16 01:43:34;;;;;;;0.10;0.10;;;17.00;56.20;;;;;;5051151;28;20353;-49
2023/07/16 01:46:06;;;;;;;0.10;0.10;;;17.00;56.20;;;;;;5051350;28;20699;-49
2023/07/16 01:48:38;;;;;;;0.08;0.08;;;17.00;56.20;;;;;;5051488;28;20191;-52
2023/07/16 01:51:08;;;;;;;0.10;0.10;;;17.10;56.30;;;;;;5051519;28;20192;-50
2023/07/16 01:53:39;;;;;;;0.00;0.00;;;17.10;56.30;;;;;;5048603;28;20244;-53
2023/07/16 01:56:10;;;;;;;0.00;0.00;;;17.10;56.40;;;;;;5051067;28;20215;-50
2023/07/16 01:58:40;;;;;;;0.10;0.10;;;17.10;56.40;;;;;;5050909;28;20195;-51
2023/07/16 02:01:13;;;;;;;0.05;0.05;;;17.10;56.40;;;;;;5043455;28;20703;-52
2023/07/16 02:03:43;;;;;;;0.00;0.00;;;17.10;56.40;;;;;;5031409;28;20687;-49
2023/07/16 02:06:16;;;;;;;0.10;0.10;;;17.10;56.50;;;;;;5031203;28;20220;-54
2023/07/16 02:08:46;;;;;;;0.10;0.10;;;17.10;56.40;;;;;;5039745;28;20202;-54
2023/07/16 02:11:17;;;;;;;0.03;0.03;;;17.10;56.50;;;;;;5051037;28;20309;-52
2023/07/16 02:13:48;;;;;;;0.10;0.10;;;17.20;56.50;;;;;;5050183;28;20573;-52
2023/07/16 02:16:20;;;;;;;0.10;0.10;;;17.10;56.50;;;;;;5050900;28;20695;-50
2023/07/16 02:18:51;;;;;;;0.10;0.10;;;17.20;56.60;;;;;;5051214;28;20203;-53
2023/07/16 02:21:21;;;;;;;0.10;0.10;;;17.20;56.50;;;;;;5051000;28;20702;-54
2023/07/16 02:23:52;;;;;;;0.13;0.13;;;17.20;56.60;;;;;;5051173;28;20195;-49
2023/07/16 02:26:23;;;;;;;0.10;0.10;;;17.20;56.60;;;;;;5050985;28;20227;-54
2023/07/16 02:28:53;;;;;;;0.10;0.10;;;17.30;56.60;;;;;;5050685;28;20231;-55
2023/07/16 02:31:26;;;;;;;0.10;0.10;;;17.30;56.60;;;;;;5050964;28;20268;-52
2023/07/16 02:33:56;;;;;;;0.03;0.03;;;17.30;56.60;;;;;;5050489;28;20196;-54
2023/07/16 02:36:27;;;;;;;0.00;0.00;;;17.30;56.60;;;;;;5050783;28;20655;-50
2023/07/16 02:38:58;;;;;;;0.10;0.10;;;17.30;56.60;;;;;;5051128;28;20200;-52
2023/07/16 02:41:28;;;;;;;0.10;0.10;;;17.30;56.60;;;;;;5051132;28;20231;-51
2023/07/16 02:44:04;;;;;;;0.10;0.10;;;17.30;57.10;;;;;;5050949;28;20592;-52
2023/07/16 02:46:37;;;;;;;0.00;0.00;;;17.30;56.50;;;;;;5044356;28;20195;-52
2023/07/16 02:49:07;;;;;;;0.10;0.10;;;17.40;56.60;;;;;;5053531;28;20611;-53
2023/07/16 02:51:38;;;;;;;0.10;0.10;;;17.40;56.60;;;;;;5050294;28;20192;-53
2023/07/16 02:54:09;;;;;;;0.00;0.00;;;17.40;56.60;;;;;;5033496;28;20208;-52
2023/07/16 02:56:39;;;;;;;0.10;0.10;;;17.40;57.30;;;;;;5054218;28;20199;-48
2023/07/16 02:59:10;;;;;;;0.10;0.10;;;17.40;56.60;;;;;;5053760;28;20230;-52
2023/07/16 03:01:42;;;;;;;0.00;0.00;;;17.40;56.60;;;;;;5054051;28;20226;-51
2023/07/16 03:04:13;;;;;;;0.15;0.15;;;17.40;56.70;;;;;;5046191;28;20188;-51
2023/07/16 03:06:44;;;;;;;0.10;0.10;;;17.40;56.70;;;;;;5047657;28;20204;-53
2023/07/16 03:09:15;;;;;;;0.10;0.10;;;17.50;56.70;;;;;;5053443;28;20205;-48
2023/07/16 03:11:45;;;;;;;0.10;0.10;;;17.50;56.70;;;;;;5052210;28;20283;-47
2023/07/16 03:14:16;;;;;;;0.10;0.10;;;17.50;56.60;;;;;;5033442;28;20197;-49
2023/07/16 03:16:48;;;;;;;0.15;0.15;;;17.50;56.60;;;;;;5047691;28;20257;-47
2023/07/16 03:19:19;;;;;;;0.10;0.10;;;17.50;56.60;;;;;;5054002;28;20655;-49
2023/07/16 03:21:50;;;;;;;0.10;0.10;;;17.50;56.60;;;;;;5053138;28;20215;-47
2023/07/16 03:24:20;;;;;;;0.10;0.10;;;17.50;56.60;;;;;;5053603;28;20768;-47
2023/07/16 03:26:51;;;;;;;0.10;0.10;;;17.50;56.70;;;;;;5053068;28;20275;-49
2023/07/16 03:29:21;;;;;;;0.10;0.10;;;17.50;56.70;;;;;;5053270;28;20202;-53
2023/07/16 03:31:54;;;;;;;0.13;0.13;;;17.50;56.70;;;;;;5052882;28;20204;-53
2023/07/16 03:34:25;;;;;;;0.10;0.10;;;17.50;56.70;;;;;;5053200;28;20577;-53
2023/07/16 03:36:55;;;;;;;0.10;0.10;;;17.50;56.70;;;;;;5052509;28;20191;-54
2023/07/16 03:39:26;;;;;;;0.10;0.10;;;17.60;56.80;;;;;;5052875;28;20329;-54
2023/07/16 03:41:56;;;;;;;0.10;0.10;;;17.60;56.80;;;;;;5049777;28;20583;-52
2023/07/16 03:44:27;;;;;;;0.10;0.10;;;17.60;56.80;;;;;;5052005;28;20222;-50
2023/07/16 03:46:59;;;;;;;0.10;0.10;;;17.60;56.70;;;;;;5048147;28;20245;-55
2023/07/16 03:49:30;;;;;;;0.10;0.10;;;17.60;56.70;;;;;;5052173;28;20192;-49
2023/07/16 03:52:01;;;;;;;0.10;0.10;;;17.60;56.70;;;;;;5052788;28;20648;-48
2023/07/16 03:54:31;;;;;;;0.10;0.10;;;17.60;56.80;;;;;;5051686;28;20215;-53
2023/07/16 03:57:02;;;;;;;0.10;0.10;;;17.60;56.80;;;;;;5051523;28;20195;-48
2023/07/16 03:59:33;;;;;;;0.10;0.10;;;17.60;56.80;;;;;;5053498;28;20297;-57
2023/07/16 04:02:05;;;;;;;0.10;0.10;;;17.70;56.90;;;;;;5055380;28;20617;-49
2023/07/16 04:04:36;;;;;;;0.10;0.10;;;17.70;56.90;;;;;;5031984;28;20591;-53
2023/07/16 04:07:07;;;;;;;0.10;0.10;;;17.60;56.70;;;;;;5045783;28;20287;-53
2023/07/16 04:09:41;;;;;;;0.15;0.15;;;17.60;56.70;;;;;;5051922;28;20200;-51
2023/07/16 04:12:12;;;;;;;0.10;0.10;;;17.60;56.70;;;;;;5051485;28;20219;-54
2023/07/16 04:14:42;;;;;;;0.00;0.00;;;17.70;56.80;;;;;;5052259;28;20687;-52
2023/07/16 04:17:15;;;;;;;0.10;0.10;;;17.60;56.70;;;;;;5050914;28;20254;-49
2023/07/16 04:19:46;;;;;;;0.10;0.10;;;17.70;56.80;;;;;;5035228;28;20192;-56
2023/07/16 04:22:16;;;;;;;0.00;0.00;;;17.60;56.70;;;;;;5049298;28;20383;-55
2023/07/16 04:24:47;;;;;;;0.10;0.10;;;17.60;56.80;;;;;;5051741;28;20611;-53
2023/07/16 04:27:18;;;;;;;0.10;0.10;;;17.60;56.70;;;;;;5051797;28;20202;-54
2023/07/16 04:29:49;;;;;;;0.20;0.20;;;17.70;56.80;;;;;;5051222;28;20246;-50
2023/07/16 04:32:21;;;;;;;0.10;0.10;;;17.60;56.70;;;;;;5048907;28;20655;-51
2023/07/16 04:34:52;;;;;;;0.20;0.20;;;17.60;56.80;;;;;;5068644;28;20218;-53
2023/07/16 04:37:22;;;;;;;0.00;0.00;;;17.60;56.70;;;;;;5057499;28;20257;-52
2023/07/16 04:39:53;;;;;;;0.10;0.10;;;17.60;56.80;;;;;;5051179;28;20667;-50
2023/07/16 04:42:23;;;;;;;0.10;0.10;;;17.60;56.80;;;;;;5050059;28;20215;-47
2023/07/16 04:44:54;;;;;;;0.00;0.00;;;17.60;56.80;;;;;;5050905;28;20216;-47
2023/07/16 04:47:27;;;;;;;0.05;0.05;;;17.60;56.90;;;;;;5052120;28;20191;-55
2023/07/16 04:49:57;;;;;;;0.00;0.00;;;17.60;56.90;;;;;;5051802;28;20192;-50
2023/07/16 04:52:28;;;;;;;0.10;0.10;;;17.60;56.90;;;;;;5050852;28;20206;-49
2023/07/16 04:54:59;;;;;;;0.10;0.10;;;17.60;56.90;;;;;;5052075;28;20215;-55
2023/07/16 04:57:30;;;;;;;0.10;0.10;;;17.60;56.90;;;;;;5051543;28;20195;-47
2023/07/16 05:00:00;;;;;;;0.00;0.00;;;17.60;56.90;;;;;;5050601;28;20200;-56
2023/07/16 05:02:33;;;;;;;0.00;0.00;;;17.60;56.90;;;;;;5051165;28;20595;-52
2023/07/16 05:05:03;;;;;;;0.10;0.10;;;17.60;56.90;;;;;;5051812;28;20220;-48
2023/07/16 05:07:34;;;;;;;0.10;0.10;;;17.60;56.90;;;;;;5050515;28;20191;-56
2023/07/16 05:10:05;;;;;;;0.10;0.10;;;17.60;56.90;;;;;;5051650;28;20214;-54
2023/07/16 05:12:36;;;;;;;0.00;0.00;;;17.60;56.90;;;;;;5050464;28;20203;-49
2023/07/16 05:15:07;;;;;;;0.10;0.10;;;17.60;56.90;;;;;;5054745;28;20210;-53
2023/07/16 05:17:39;;;;;;;0.10;0.10;;;17.60;56.90;;;;;;5056145;28;20551;-54
2023/07/16 05:20:11;;;;;;;0.10;0.10;;;17.50;56.90;;;;;;5051049;28;20681;-50
2023/07/16 05:22:41;;;;;;;0.10;0.10;;;17.50;56.90;;;;;;5051240;28;20311;-56
2023/07/16 05:25:12;;;;;;;0.00;0.00;;;17.50;56.90;;;;;;5050604;28;20222;-52
2023/07/16 05:27:43;;;;;;;0.10;0.10;;;17.50;57.00;;;;;;5050887;28;20191;-50
2023/07/16 05:30:14;;;;;;;0.00;0.00;;;17.50;56.90;;;;;;5050341;28;20202;-49
2023/07/16 05:32:48;;;;;;;0.10;0.10;;;17.50;57.00;;;;;;5045300;28;20242;-50
2023/07/16 05:35:19;;;;;;;0.10;0.10;;;17.50;57.00;;;;;;5051740;28;20219;-49
2023/07/16 05:37:49;;;;;;;0.10;0.10;;;17.50;57.00;;;;;;5050961;28;20199;-53
2023/07/16 05:40:20;;;;;;;0.10;0.10;;;17.50;57.00;;;;;;5046576;28;20265;-52
2023/07/16 05:42:50;;;;;;;0.00;0.00;;;17.50;57.00;;;;;;5047323;28;20219;-52
2023/07/16 05:45:21;;;;;;;0.08;0.08;;;17.50;57.10;;;;;;5050380;28;20211;-49
2023/07/16 05:47:54;;;;;;;0.10;0.10;;;17.50;57.10;;;;;;5050482;28;20601;-53
2023/07/16 05:50:24;;;;;;;0.10;0.10;;;17.50;57.10;;;;;;5051107;28;20206;-48
2023/07/16 05:52:55;;;;;;;0.17;0.17;;;17.50;57.10;;;;;;5049947;28;20246;-50
2023/07/16 05:55:25;;;;;;;0.10;0.10;;;17.50;57.10;;;;;;5050050;28;20219;-53
2023/07/16 05:57:56;;;;;;;0.10;0.10;;;17.50;57.10;;;;;;5049929;28;20218;-52
2023/07/16 06:00:27;;;;;;;0.10;0.10;;;17.50;57.10;;;;;;5049253;28;20261;-50
2023/07/16 06:02:59;;;;;;;0.10;0.10;;;17.50;57.10;;;;;;5050350;28;20284;-47
2023/07/16 06:05:32;;;;;;;0.10;0.10;;;17.50;57.10;;;;;;5050006;28;20284;-45
2023/07/16 06:08:02;;;;;;;0.10;0.10;;;17.50;57.10;;;;;;5050912;28;20187;-47
2023/07/16 06:10:35;;;;;;;0.10;0.10;;;17.50;57.10;;;;;;5050316;28;20196;-50
2023/07/16 06:13:06;;;;;;;0.10;0.10;;;17.50;57.10;;;;;;5050291;28;20724;-51
2023/07/16 06:15:37;;;;;;;0.10;0.10;;;17.50;57.10;;;;;;5049707;28;20223;-53
2023/07/16 06:18:09;;;;;;;0.00;0.00;;;17.50;57.20;;;;;;5050026;28;20652;-50
2023/07/16 06:20:40;;;;;;;0.10;0.10;;;17.50;57.20;;;;;;5054334;28;20203;-53
2023/07/16 06:23:11;;;;;;;0.10;0.10;;;17.50;57.20;;;;;;5053908;28;20219;-52
2023/07/16 06:25:44;;;;;;;0.00;0.00;;;17.50;57.20;;;;;;5054426;28;20617;-54
2023/07/16 06:28:14;;;;;;;0.10;0.10;;;17.50;57.20;;;;;;5042161;28;20189;-52
2023/07/16 06:30:45;;;;;;;0.10;0.10;;;17.40;57.10;;;;;;5037882;28;20207;-55
2023/07/16 06:33:18;;;;;;;0.10;0.10;;;17.40;57.20;;;;;;5053796;28;20199;-51
2023/07/16 06:35:49;;;;;;;0.08;0.08;;;17.40;57.20;;;;;;5054145;28;20215;-49
2023/07/16 06:38:20;;;;;;;0.10;0.10;;;17.40;57.20;;;;;;5053372;28;20191;-52
2023/07/16 06:40:52;;;;;;;0.10;0.10;;;17.40;57.20;;;;;;5045519;28;20196;-51
2023/07/16 06:43:23;;;;;;;0.10;0.10;;;17.40;57.20;;;;;;5048704;28;20575;-55
2023/07/16 06:45:53;;;;;;;0.10;0.10;;;17.40;57.20;;;;;;5053362;28;20223;-54
2023/07/16 06:48:26;;;;;;;0.10;0.10;;;17.40;57.20;;;;;;5053868;28;20203;-48
2023/07/16 06:50:56;;;;;;;0.10;0.10;;;17.40;57.20;;;;;;5053537;28;20204;-52
2023/07/16 06:53:27;;;;;;;0.10;0.10;;;17.40;57.20;;;;;;5053874;28;20196;-55
2023/07/16 06:55:58;;;;;;;0.10;0.10;;;17.40;57.20;;;;;;5053341;28;20587;-52
2023/07/16 06:58:35;;;;;;;0.10;0.10;;;17.40;57.20;;;;;;5053488;28;20671;-47
2023/07/16 07:01:06;;;;;;;0.10;0.10;;;17.40;57.30;;;;;;5053121;28;20603;-46
2023/07/16 07:03:38;;;;;;;0.10;0.10;;;17.40;57.30;;;;;;5050533;28;20196;-51
2023/07/16 07:06:10;;;;;;;0.10;0.10;;;17.40;57.30;;;;;;5045008;28;20212;-49
2023/07/16 07:08:41;;;;;;;0.10;0.10;;;17.40;57.40;;;;;;5053961;28;20192;-48
2023/07/16 07:11:11;;;;;;;0.10;0.10;;;17.40;57.40;;;;;;5052621;28;20207;-50
2023/07/16 07:13:43;;;;;;;0.10;0.10;;;17.40;57.40;;;;;;5052899;28;20474;-46
2023/07/16 07:16:13;;;;;;;0.10;0.10;;;17.40;57.40;;;;;;5053297;28;20259;-47
2023/07/16 07:18:46;;;;;;;0.10;0.10;;;17.40;57.30;;;;;;5053074;28;20647;-47
2023/07/16 07:21:16;;;;;;;0.10;0.10;;;17.40;57.30;;;;;;5053511;28;20686;-47
2023/07/16 07:23:47;;;;;;;0.00;0.00;;;17.40;57.20;;;;;;5053202;28;20199;-48
2023/07/16 07:26:18;;;;;;;0.00;0.00;;;17.30;57.20;;;;;;5053096;28;20226;-48
2023/07/16 07:28:48;;;;;;;0.03;0.03;;;17.40;57.30;;;;;;5052519;28;20191;-46
2023/07/16 07:31:19;;;;;;;0.10;0.10;;;17.40;57.30;;;;;;5051800;28;20706;-49
2023/07/16 07:33:53;;;;;;;0.10;0.10;;;17.40;57.20;;;;;;5053469;28;20195;-50
2023/07/16 07:36:24;;;;;;;0.10;0.10;;;17.40;57.20;;;;;;5052367;28;20649;-51
2023/07/16 07:38:54;;;;;;;0.17;0.17;;;17.30;57.20;;;;;;5053209;28;20191;-48
2023/07/16 07:41:25;;;;;;;0.10;0.10;;;17.30;57.20;;;;;;5053043;28;20206;-46
2023/07/16 07:43:55;;;;;;;0.10;0.10;;;17.30;57.20;;;;;;5052420;28;20200;-52
2023/07/16 07:46:26;;;;;;;0.10;0.10;;;17.30;57.30;;;;;;5040182;28;20212;-48
2023/07/16 07:48:58;;;;;;;0.00;0.00;;;17.30;57.30;;;;;;5032795;28;20204;-48
2023/07/16 07:51:29;;;;;;;0.10;0.10;;;17.30;57.30;;;;;;5033335;28;20200;-50
2023/07/16 07:54:00;;;;;;;0.10;0.10;;;17.30;57.30;;;;;;5033575;28;20203;-53
2023/07/16 07:56:30;;;;;;;0.00;0.00;;;17.30;57.30;;;;;;5032925;28;20246;-53
2023/07/16 07:59:01;;;;;;;0.10;0.10;;;17.30;57.30;;;;;;5041201;28;20229;-51
2023/07/16 08:01:32;;;;;;;0.08;0.08;;;17.30;57.30;;;;;;5042276;28;20200;-49
2023/07/16 08:04:04;;;;;;;0.10;0.10;;;17.30;57.30;;;;;;5033036;28;20196;-53
2023/07/16 08:06:35;;;;;;;0.08;0.08;;;17.30;57.30;;;;;;5033057;28;20199;-50
2023/07/16 08:09:05;;;;;;;0.00;0.00;;;17.30;57.30;;;;;;5033898;28;20200;-48
2023/07/16 08:11:36;;;;;;;0.00;0.00;;;17.30;57.30;;;;;;5033319;28;20215;-51
2023/07/16 08:14:07;;;;;;;0.10;0.10;;;17.30;57.20;;;;;;5032230;28;20219;-51
2023/07/16 08:16:37;;;;;;;0.00;0.00;;;17.30;57.30;;;;;;5032652;28;20219;-52
2023/07/16 08:19:10;;;;;;;0.10;0.10;;;17.30;57.30;;;;;;5032709;28;20192;-49
2023/07/16 08:21:41;;;;;;;0.10;0.10;;;17.30;57.30;;;;;;5032930;28;20636;-52
2023/07/16 08:24:11;;;;;;;0.10;0.10;;;17.20;57.30;;;;;;5032769;28;20197;-50
2023/07/16 08:26:42;;;;;;;0.10;0.10;;;17.20;57.30;;;;;;5034797;28;20211;-50
2023/07/16 08:29:12;;;;;;;0.10;0.10;;;17.20;57.30;;;;;;5031777;28;20192;-51
2023/07/16 08:31:43;;;;;;;0.10;0.10;;;17.20;57.30;;;;;;5038598;28;20267;-48
2023/07/16 08:34:15;;;;;;;0.10;0.10;;;17.20;57.30;;;;;;5052404;28;20195;-48
2023/07/16 08:36:46;;;;;;;0.10;0.10;;;17.20;57.40;;;;;;5035864;28;20192;-47
2023/07/16 08:39:19;;;;;;;0.10;0.10;;;17.20;57.40;;;;;;5051506;28;20207;-49
2023/07/16 08:41:50;;;;;;;0.10;0.10;;;17.20;57.40;;;;;;5041942;28;20188;-49
2023/07/16 08:44:21;;;;;;;0.00;0.00;;;17.20;57.50;;;;;;5031467;28;20206;-52
2023/07/16 08:46:52;;;;;;;0.10;0.10;;;17.20;57.40;;;;;;5051032;28;20195;-47
2023/07/16 08:49:26;;;;;;;0.08;0.08;;;17.20;57.40;;;;;;5051197;28;20196;-55
2023/07/16 08:51:59;;;;;;;0.10;0.10;;;17.20;57.40;;;;;;5051404;28;20612;-51
2023/07/16 08:54:29;;;;;;;0.10;0.10;;;17.20;57.40;;;;;;5037772;28;20695;-56
2023/07/16 08:57:01;;;;;;;0.00;0.00;;;17.20;57.40;;;;;;5051696;28;20192;-54
2023/07/16 08:59:33;;;;;;;0.10;0.10;;;17.20;57.40;;;;;;5051760;28;20203;-51
2023/07/16 09:02:05;;;;;;;0.10;0.10;;;17.20;57.40;;;;;;5040843;28;20203;-50
2023/07/16 09:04:38;;;;;;;0.03;0.03;;;17.20;57.40;;;;;;5050977;28;20212;-50
2023/07/16 09:07:09;;;;;;;0.10;0.10;;;17.10;57.40;;;;;;5050357;28;20199;-49
2023/07/16 09:09:41;;;;;;;0.10;0.10;;;17.10;57.40;;;;;;5051913;28;20538;-51
2023/07/16 09:12:15;;;;;;;0.20;0.20;;;17.10;57.40;;;;;;5051251;28;20697;-49
2023/07/16 09:14:46;;;;;;;0.00;0.00;;;17.10;57.40;;;;;;5051210;28;20466;-47
2023/07/16 09:17:23;;;;;;;0.05;0.05;;;17.10;57.50;;;;;;5050723;28;20206;-47
2023/07/16 09:19:55;;;;;;;0.10;0.10;;;17.10;57.50;;;;;;5049868;28;20191;-50
2023/07/16 09:22:26;;;;;;;0.15;0.15;;;17.10;57.50;;;;;;5051634;28;20215;-50
2023/07/16 09:24:58;;;;;;;0.10;0.10;;;17.10;57.50;;;;;;5050431;28;20770;-48
2023/07/16 09:27:33;;;;;;;0.10;0.10;;;17.10;57.50;;;;;;5051328;28;20286;-50
2023/07/16 09:30:05;;;;;;;0.10;0.10;;;17.10;57.50;;;;;;5050672;28;20219;-45
2023/07/16 09:32:40;;;;;;;0.10;0.10;;;17.10;57.50;;;;;;5051354;28;20250;-50
2023/07/16 09:35:17;;;;;;;0.00;0.00;;;17.00;57.50;;;;;;5050485;28;20203;-51
2023/07/16 09:37:47;;;;;;;0.10;0.10;;;17.00;57.50;;;;;;5050714;28;20223;-49
2023/07/16 09:40:18;;;;;;;0.10;0.10;;;17.00;57.50;;;;;;5049924;28;20213;-50
2023/07/16 09:42:49;;;;;;;0.10;0.10;;;17.00;57.50;;;;;;5050224;28;20223;-49
2023/07/16 09:45:21;;;;;;;0.10;0.10;;;17.00;57.50;;;;;;5049684;28;20215;-51
2023/07/16 09:47:52;;;;;;;0.10;0.10;;;17.00;57.50;;;;;;5049591;28;20195;-50
2023/07/16 09:50:29;;;;;;;0.05;0.05;;;17.00;57.50;;;;;;5038239;28;20434;-47
2023/07/16 09:53:00;;;;;;;0.10;0.10;;;17.00;57.50;;;;;;5050933;28;20202;-47
2023/07/16 09:55:33;;;;;;;0.05;0.05;;;17.00;57.50;;;;;;5053975;28;20215;-53
2023/07/16 09:58:06;;;;;;;0.08;0.08;;;17.00;57.50;;;;;;5054627;28;20569;-53
2023/07/16 10:00:39;;;;;;;0.00;0.00;;;17.00;57.60;;;;;;5055090;28;20202;-47
2023/07/16 10:03:11;;;;;;;0.10;0.10;;;16.90;57.50;;;;;;5053709;28;20231;-47
2023/07/16 10:05:44;;;;;;;0.10;0.10;;;16.90;57.50;;;;;;5054543;28;20689;-49
2023/07/16 10:08:24;;;;;;;0.10;0.10;;;16.90;57.50;;;;;;5054442;28;20195;-46
2023/07/16 10:10:59;;;;;;;0.00;0.00;;;16.90;57.50;;;;;;5054269;28;20554;-49
2023/07/16 10:13:30;;;;;;;0.10;0.10;;;17.00;57.60;;;;;;5054521;28;20199;-47
2023/07/16 10:16:01;;;;;;;0.10;0.10;;;17.00;57.60;;;;;;5053893;28;20215;-50
2023/07/16 10:18:34;;;;;;;0.05;0.05;;;17.00;57.50;;;;;;5053491;28;20275;-46
2023/07/16 10:21:09;;;;;;;0.10;0.10;;;16.90;57.50;;;;;;5053432;28;20278;-51
2023/07/16 10:23:45;;;;;;;0.10;0.10;;;16.90;57.50;;;;;;5037675;28;20237;-49
2023/07/16 10:26:17;;;;;;;0.10;0.10;;;16.90;57.60;;;;;;5053623;28;20218;-52
2023/07/16 10:28:48;;;;;;;0.08;0.08;;;16.90;57.60;;;;;;5054829;28;20200;-55
2023/07/16 10:31:23;;;;;;;0.00;0.00;;;16.90;57.60;;;;;;5037826;28;20196;-50
2023/07/16 10:34:04;;;;;;;0.10;0.10;;;16.90;57.60;;;;;;5052441;28;20226;-48
2023/07/16 10:36:42;;;;;;;0.00;0.00;;;16.90;57.60;;;;;;5046468;28;20195;-49
2023/07/16 10:39:12;;;;;;;0.10;0.10;;;16.90;57.60;;;;;;5053904;28;20227;-55
2023/07/16 10:41:43;;;;;;;0.05;0.05;;;16.90;57.60;;;;;;5053681;28;20194;-49
2023/07/16 10:44:15;;;;;;;0.10;0.10;;;16.90;57.60;;;;;;5053552;28;20695;-49
2023/07/16 10:46:46;;;;;;;0.10;0.10;;;16.90;57.70;;;;;;5055053;28;20379;-50
2023/07/16 10:49:16;;;;;;;0.08;0.08;;;16.90;57.70;;;;;;5074065;28;20194;-52
2023/07/16 10:51:49;;;;;;;0.10;0.10;;;16.90;57.60;;;;;;5060482;28;20192;-51
2023/07/16 10:54:23;;;;;;;0.10;0.10;;;16.90;57.60;;;;;;5053835;28;20260;-50
2023/07/16 10:56:54;;;;;;;0.10;0.10;;;16.90;57.70;;;;;;5053710;28;20274;-51
2023/07/16 10:59:25;;;;;;;0.10;0.10;;;16.90;57.60;;;;;;5053347;28;20226;-52
2023/07/16 11:01:56;;;;;;;0.10;0.10;;;16.90;57.70;;;;;;5053552;28;20199;-50
2023/07/16 11:04:27;;;;;;;0.10;0.10;;;16.90;57.70;;;;;;5053550;28;20227;-51
2023/07/16 11:06:59;;;;;;;0.10;0.10;;;16.90;57.60;;;;;;5054153;28;20188;-51
2023/07/16 11:09:30;;;;;;;0.10;0.10;;;16.80;57.60;;;;;;5053291;28;20200;-51
2023/07/16 11:12:09;;;;;;;0.10;0.10;;;16.80;57.60;;;;;;5053761;28;20214;-50
2023/07/16 11:14:40;;;;;;;0.10;0.10;;;16.80;57.60;;;;;;5053422;28;20227;-50
2023/07/16 11:17:11;;;;;;;0.05;0.05;;;16.80;57.60;;;;;;5053894;28;20196;-50
2023/07/16 11:19:42;;;;;;;0.10;0.10;;;16.80;57.60;;;;;;5053930;28;20206;-49
2023/07/16 11:22:15;;;;;;;0.10;0.10;;;16.80;57.60;;;;;;5053061;28;20206;-51
2023/07/16 11:24:46;;;;;;;0.03;0.03;;;16.80;57.60;;;;;;5052800;28;20231;-48
2023/07/16 11:27:18;;;;;;;0.10;0.10;;;16.80;57.60;;;;;;5053761;28;20660;-55
2023/07/16 11:29:53;;;;;;;0.00;0.00;;;16.80;57.60;;;;;;5053792;28;20200;-50
2023/07/16 11:32:33;;;;;;;0.10;0.10;;;16.80;57.70;;;;;;5053785;28;20195;-48
2023/07/16 11:35:06;;;;;;;0.00;0.00;;;16.80;57.60;;;;;;5043193;28;20211;-48
2023/07/16 11:37:39;;;;;;;0.00;0.00;;;16.80;57.60;;;;;;5041749;28;20622;-50
2023/07/16 11:40:11;;;;;;;0.10;0.10;;;16.80;57.60;;;;;;5039951;28;20683;-51
2023/07/16 11:42:42;;;;;;;0.10;0.10;;;16.80;57.60;;;;;;5042428;28;20648;-54
2023/07/16 11:45:19;;;;;;;0.08;0.08;;;16.80;57.70;;;;;;5040771;28;20212;-51
2023/07/16 11:47:50;;;;;;;0.10;0.10;;;16.80;57.70;;;;;;5041797;28;20583;-51
2023/07/16 11:50:21;;;;;;;0.00;0.00;;;16.80;57.70;;;;;;5041271;28;20191;-52
2023/07/16 11:52:59;;;;;;;0.10;0.10;;;16.70;57.70;;;;;;5040787;28;20195;-51
2023/07/16 11:55:29;;;;;;;0.00;0.00;;;16.70;57.70;;;;;;5044047;28;20219;-53
2023/07/16 11:58:02;;;;;;;0.00;0.00;;;16.70;57.70;;;;;;5039307;28;20184;-52
2023/07/16 12:00:33;;;;;;;0.10;0.10;;;16.70;57.70;;;;;;5042754;28;20192;-52
2023/07/16 12:03:04;;;;;;;0.10;0.10;;;16.70;57.70;;;;;;5043095;28;20184;-51
2023/07/16 12:05:35;;;;;;;0.10;0.10;;;16.70;57.70;;;;;;5041835;28;20715;-48
2023/07/16 12:08:13;;;;;;;0.00;0.00;;;16.70;57.70;;;;;;5042076;28;20261;-52
2023/07/16 12:10:44;;;;;;;0.10;0.10;;;16.70;57.70;;;;;;5033512;28;20204;-50
2023/07/16 12:13:15;;;;;;;0.00;0.00;;;16.70;57.70;;;;;;5039240;28;20203;-49
2023/07/16 12:15:45;;;;;;;0.08;0.08;;;16.70;57.70;;;;;;5042500;28;20216;-52
2023/07/16 12:18:16;;;;;;;0.00;0.00;;;16.60;57.70;;;;;;5041920;28;20200;-50
2023/07/16 12:20:47;;;;;;;0.00;0.00;;;16.70;57.70;;;;;;5041740;28;20195;-51
2023/07/16 12:23:20;;;;;;;0.10;0.10;;;16.60;57.70;;;;;;5040784;28;20216;-52
2023/07/16 12:25:51;;;;;;;0.05;0.05;;;16.60;57.70;;;;;;5046015;28;20216;-50
2023/07/16 12:28:22;;;;;;;0.10;0.10;;;16.60;57.70;;;;;;5042945;28;20188;-49
2023/07/16 12:30:52;;;;;;;0.10;0.10;;;16.60;57.70;;;;;;5039958;28;20200;-51
2023/07/16 12:33:23;;;;;;;0.10;0.10;;;16.60;57.70;;;;;;5041807;28;20188;-48
2023/07/16 12:35:54;;;;;;;0.10;0.10;;;16.60;57.70;;;;;;5041029;28;20215;-48
2023/07/16 12:38:26;;;;;;;0.08;0.08;;;16.60;57.70;;;;;;5041015;28;20246;-48
2023/07/16 12:40:57;;;;;;;0.05;0.05;;;16.60;57.70;;;;;;5042405;28;20698;-49
2023/07/16 12:43:27;;;;;;;0.10;0.10;;;16.60;57.70;;;;;;5042963;28;20278;-50
2023/07/16 12:45:58;;;;;;;0.10;0.10;;;16.60;57.70;;;;;;5031610;28;20219;-49
2023/07/16 12:48:29;;;;;;;0.10;0.10;;;16.50;57.70;;;;;;5031414;28;20196;-49
2023/07/16 12:50:59;;;;;;;0.10;0.10;;;16.50;57.70;;;;;;5031858;28;20625;-48
2023/07/16 12:53:32;;;;;;;0.08;0.08;;;16.50;57.70;;;;;;5032136;28;20192;-48
2023/07/16 12:56:03;;;;;;;0.00;0.00;;;16.50;57.70;;;;;;5031764;28;20223;-48
2023/07/16 12:58:33;;;;;;;0.00;0.00;;;16.50;57.70;;;;;;5031827;28;20420;-51
2023/07/16 13:01:04;;;;;;;0.00;0.00;;;16.50;57.70;;;;;;5034302;28;20214;-50
2023/07/16 13:03:35;;;;;;;0.00;0.00;;;16.50;57.80;;;;;;5042667;28;20633;-48
2023/07/16 13:06:05;;;;;;;0.10;0.10;;;16.50;57.80;;;;;;5041322;28;20254;-48
2023/07/16 13:08:38;;;;;;;0.00;0.00;;;16.40;57.80;;;;;;5040758;28;20203;-50
2023/07/16 13:11:09;;;;;;;0.10;0.10;;;16.40;57.70;;;;;;5041728;28;20644;-52